createdAt,value
2019-05-22T00:01:00.699Z,99.90
2019-05-22T00:03:33.905Z,99.90
2019-05-22T00:06:06.390Z,99.90
2019-05-22T00:08:37.151Z,99.90
2019-05-22T00:11:05.911Z,99.90
2019-05-22T00:13:38.166Z,99.90
2019-05-22T00:16:11.177Z,99.90
2019-05-22T00:18:40.077Z,99.90
2019-05-22T00:21:10.244Z,99.90
2019-05-22T00:23:41.456Z,99.90
2019-05-22T00:26:11.316Z,99.90
2019-05-22T00:28:40.736Z,99.90
2019-05-22T00:31:09.912Z,99.90
2019-05-22T00:33:39.283Z,99.90
2019-05-22T00:36:10.684Z,99.90
2019-05-22T00:38:39.857Z,99.90
2019-05-22T00:41:10.501Z,99.90
2019-05-22T00:43:41.239Z,99.90
2019-05-22T00:46:12.539Z,99.90
2019-05-22T00:48:42.002Z,99.90
2019-05-22T00:51:22.686Z,99.90
2019-05-22T00:53:55.936Z,99.90
2019-05-22T00:56:28.105Z,99.90
2019-05-22T00:59:05.825Z,99.90
2019-05-22T01:01:48.147Z,99.90
2019-05-22T01:04:19.118Z,99.90
2019-05-22T01:06:48.661Z,99.90
2019-05-22T01:09:19.956Z,99.90
2019-05-22T01:11:48.777Z,99.90
2019-05-22T01:14:18.904Z,99.90
2019-05-22T01:16:49.343Z,99.90
2019-05-22T01:19:19.386Z,99.90
2019-05-22T01:21:50.543Z,99.90
2019-05-22T01:24:19.692Z,99.90
2019-05-22T01:26:50.041Z,99.90
2019-05-22T01:29:21.707Z,99.90
2019-05-22T01:32:08.910Z,99.90
2019-05-22T01:34:38.458Z,99.90
2019-05-22T01:37:08.774Z,99.90
2019-05-22T01:39:45.639Z,99.90
2019-05-22T01:42:17.535Z,99.90
2019-05-22T01:44:59.788Z,99.90
2019-05-22T01:47:24.315Z,99.90
2019-05-22T01:49:58.280Z,99.90
2019-05-22T01:52:27.057Z,99.90
2019-05-22T01:54:57.671Z,99.90
2019-05-22T01:57:27.722Z,99.90
2019-05-22T01:59:57.700Z,99.90
2019-05-22T02:02:26.676Z,99.90
2019-05-22T02:04:58.506Z,99.90
2019-05-22T02:07:29.056Z,99.90
2019-05-22T02:09:59.467Z,99.90
2019-05-22T02:12:37.790Z,99.90
2019-05-22T02:15:07.656Z,99.90
2019-05-22T02:17:37.237Z,99.90
2019-05-22T02:20:08.621Z,99.90
2019-05-22T02:22:38.799Z,99.90
2019-05-22T02:25:08.343Z,99.90
2019-05-22T02:27:38.844Z,99.90
2019-05-22T02:30:09.543Z,99.90
2019-05-22T02:32:39.093Z,99.90
2019-05-22T02:35:09.379Z,99.90
2019-05-22T02:37:39.457Z,99.90
2019-05-22T02:40:13.664Z,99.90
2019-05-22T02:42:42.490Z,99.90
2019-05-22T02:45:11.246Z,99.80
2019-05-22T02:47:40.740Z,99.70
2019-05-22T02:50:09.499Z,99.60
2019-05-22T02:52:38.473Z,99.60
2019-05-22T02:55:07.430Z,99.60
2019-05-22T02:57:36.641Z,99.60
2019-05-22T03:00:06.934Z,99.60
2019-05-22T03:02:39.328Z,99.40
2019-05-22T03:05:10.442Z,99.20
2019-05-22T03:07:41.655Z,99.10
2019-05-22T03:10:12.951Z,99.20
2019-05-22T03:12:45.686Z,99.10
2019-05-22T03:15:16.630Z,99.00
2019-05-22T03:17:45.604Z,98.80
2019-05-22T03:20:18.966Z,99.00
2019-05-22T03:23:09.894Z,99.00
2019-05-22T03:25:39.042Z,98.90
2019-05-22T03:28:08.188Z,98.70
2019-05-22T03:30:41.187Z,98.90
2019-05-22T03:33:10.250Z,98.90
2019-05-22T03:35:51.045Z,99.00
2019-05-22T03:38:20.528Z,98.90
2019-05-22T03:40:52.236Z,99.00
2019-05-22T03:43:24.743Z,99.00
2019-05-22T03:45:56.507Z,98.90
2019-05-22T03:48:27.744Z,98.90
2019-05-22T03:51:00.987Z,98.80
2019-05-22T03:53:30.603Z,99.10
2019-05-22T03:55:59.732Z,99.00
2019-05-22T03:58:29.022Z,99.00
2019-05-22T04:00:58.778Z,99.10
2019-05-22T04:03:27.831Z,99.00
2019-05-22T04:05:57.319Z,99.20
2019-05-22T04:08:27.544Z,99.00
2019-05-22T04:10:59.959Z,99.00
2019-05-22T04:13:29.772Z,98.80
2019-05-22T04:15:59.775Z,98.80
2019-05-22T04:18:29.706Z,98.80
2019-05-22T04:21:00.499Z,99.00
2019-05-22T04:23:29.295Z,99.10
2019-05-22T04:25:59.142Z,99.30
2019-05-22T04:28:29.933Z,99.30
2019-05-22T04:31:00.252Z,99.30
2019-05-22T04:33:30.923Z,99.60
2019-05-22T04:36:01.737Z,99.70
2019-05-22T04:38:30.820Z,99.80
2019-05-22T04:41:02.373Z,99.70
2019-05-22T04:43:34.204Z,99.90
2019-05-22T04:46:04.448Z,99.80
2019-05-22T04:51:26.156Z,99.70
2019-05-22T04:53:56.324Z,99.30
2019-05-22T04:56:26.031Z,99.20
2019-05-22T04:58:55.390Z,99.30
2019-05-22T05:01:24.768Z,99.30
2019-05-22T05:03:53.634Z,99.30
2019-05-22T05:06:24.048Z,99.40
2019-05-22T05:08:52.893Z,99.30
2019-05-22T05:11:21.939Z,99.30
2019-05-22T05:13:50.795Z,99.10
2019-05-22T05:16:23.287Z,99.00
2019-05-22T05:18:52.078Z,98.80
2019-05-22T05:21:20.849Z,98.50
2019-05-22T05:23:49.528Z,98.30
2019-05-22T05:26:19.182Z,98.20
2019-05-22T05:28:48.286Z,97.90
2019-05-22T05:31:18.450Z,97.90
2019-05-22T05:33:56.489Z,97.80
2019-05-22T05:36:25.675Z,97.40
2019-05-22T05:38:55.797Z,97.40
2019-05-22T05:41:24.662Z,97.00
2019-05-22T05:43:53.690Z,96.80
2019-05-22T05:46:22.372Z,96.90
2019-05-22T05:48:52.484Z,97.00
2019-05-22T05:51:23.341Z,96.60
2019-05-22T05:54:06.993Z,96.50
2019-05-22T05:56:37.514Z,96.40
2019-05-22T05:59:07.589Z,96.30
2019-05-22T06:01:41.077Z,96.10
2019-05-22T06:04:11.226Z,96.20
2019-05-22T06:06:43.146Z,96.20
2019-05-22T06:09:16.779Z,96.30
2019-05-22T06:11:48.749Z,96.30
2019-05-22T06:14:33.633Z,96.00
2019-05-22T06:17:25.101Z,96.00
2019-05-22T06:19:57.389Z,95.90
2019-05-22T06:22:26.139Z,96.00
2019-05-22T06:25:00.557Z,96.10
2019-05-22T06:27:31.756Z,96.10
2019-05-22T06:30:04.152Z,96.30
2019-05-22T06:32:52.776Z,95.90
2019-05-22T06:35:21.948Z,95.90
2019-05-22T06:38:00.776Z,95.80
2019-05-22T06:40:29.820Z,95.70
2019-05-22T06:43:21.823Z,95.40
2019-05-22T06:45:50.791Z,95.30
2019-05-22T06:48:19.497Z,95.30
2019-05-22T06:50:49.375Z,95.20
2019-05-22T06:53:19.378Z,94.90
2019-05-22T06:55:48.704Z,94.70
2019-05-22T06:58:18.395Z,94.90
2019-05-22T07:01:05.770Z,94.90
2019-05-22T07:03:39.227Z,94.90
2019-05-22T07:06:08.723Z,94.90
2019-05-22T07:08:40.171Z,94.80
2019-05-22T07:11:11.532Z,94.50
2019-05-22T07:13:40.422Z,94.60
2019-05-22T07:16:10.112Z,94.70
2019-05-22T07:18:40.618Z,94.30
2019-05-22T07:21:09.833Z,94.60
2019-05-22T07:23:38.456Z,94.40
2019-05-22T07:26:08.614Z,94.10
2019-05-22T07:28:37.935Z,94.20
2019-05-22T07:31:07.638Z,94.30
2019-05-22T07:33:38.784Z,94.30
2019-05-22T07:36:10.858Z,94.10
2019-05-22T07:38:38.300Z,93.90
2019-05-22T07:41:24.871Z,94.30
2019-05-22T07:43:49.793Z,94.10
2019-05-22T07:46:19.147Z,94.30
2019-05-22T07:48:49.089Z,94.30
2019-05-22T07:51:19.234Z,94.40
2019-05-22T07:53:48.328Z,94.40
2019-05-22T07:56:18.457Z,94.50
2019-05-22T07:58:48.717Z,94.70
2019-05-22T08:01:18.181Z,94.60
2019-05-22T08:03:48.826Z,94.60
2019-05-22T08:06:18.432Z,94.40
2019-05-22T08:08:47.526Z,94.40
2019-05-22T08:11:17.397Z,94.30
2019-05-22T08:13:46.253Z,94.20
2019-05-22T08:16:16.141Z,94.50
2019-05-22T08:18:45.556Z,94.40
2019-05-22T08:21:14.403Z,94.30
2019-05-22T08:23:43.658Z,93.90
2019-05-22T08:26:13.568Z,93.80
2019-05-22T08:28:42.523Z,93.50
2019-05-22T08:31:12.892Z,93.70
2019-05-22T08:33:41.896Z,93.40
2019-05-22T08:36:10.665Z,92.80
2019-05-22T08:38:39.642Z,92.80
2019-05-22T08:41:09.894Z,92.30
2019-05-22T08:44:03.136Z,92.00
2019-05-22T08:46:12.254Z,92.20
2019-05-22T08:48:47.719Z,92.40
2019-05-22T08:51:14.240Z,91.90
2019-05-22T08:53:47.869Z,91.70
2019-05-22T08:56:14.295Z,92.60
2019-05-22T08:58:44.350Z,91.80
2019-05-22T09:01:14.164Z,91.80
2019-05-22T09:03:43.771Z,92.00
2019-05-22T09:06:12.577Z,92.00
2019-05-22T09:08:41.326Z,92.10
2019-05-22T09:11:10.453Z,92.40
2019-05-22T09:13:39.826Z,92.30
2019-05-22T09:16:10.007Z,92.20
2019-05-22T09:18:47.527Z,92.00
2019-05-22T09:21:16.718Z,92.00
2019-05-22T09:23:46.841Z,91.30
2019-05-22T09:26:18.635Z,91.00
2019-05-22T09:28:47.490Z,90.70
2019-05-22T09:31:17.639Z,90.70
2019-05-22T09:33:46.664Z,89.50
2019-05-22T09:36:16.070Z,88.90
2019-05-22T09:38:45.849Z,89.00
2019-05-22T09:41:16.673Z,86.80
2019-05-22T09:43:45.272Z,85.20
2019-05-22T09:46:15.152Z,83.20
2019-05-22T09:48:44.136Z,84.00
2019-05-22T09:51:12.874Z,83.20
2019-05-22T09:53:41.668Z,79.90
2019-05-22T09:56:10.683Z,80.10
2019-05-22T09:58:39.381Z,80.90
2019-05-22T10:01:11.755Z,80.90
2019-05-22T10:03:39.494Z,81.90
2019-05-22T10:06:08.328Z,82.10
2019-05-22T10:08:37.476Z,81.80
2019-05-22T10:11:06.634Z,82.20
2019-05-22T10:13:36.241Z,82.50
2019-05-22T10:16:06.754Z,79.80
2019-05-22T10:18:36.095Z,80.10
2019-05-22T10:21:05.509Z,80.70
2019-05-22T10:23:34.132Z,78.50
2019-05-22T10:26:02.878Z,79.00
2019-05-22T10:28:31.674Z,81.30
2019-05-22T10:31:00.879Z,80.70
2019-05-22T10:33:30.346Z,78.50
2019-05-22T10:35:59.251Z,75.80
2019-05-22T10:38:27.995Z,75.40
2019-05-22T10:40:59.329Z,70.30
2019-05-22T10:43:28.631Z,69.80
2019-05-22T10:46:01.006Z,69.60
2019-05-22T10:48:30.037Z,71.50
2019-05-22T10:50:59.275Z,74.20
2019-05-22T10:53:33.509Z,72.80
2019-05-22T10:55:59.737Z,75.30
2019-05-22T10:58:28.369Z,71.80
2019-05-22T11:00:57.045Z,70.30
2019-05-22T11:03:26.052Z,67.30
2019-05-22T11:06:06.301Z,66.50
2019-05-22T11:08:29.484Z,66.20
2019-05-22T11:10:56.311Z,71.20
2019-05-22T11:13:25.453Z,71.20
2019-05-22T11:15:54.170Z,67.60
2019-05-22T11:18:23.003Z,67.20
2019-05-22T11:20:52.391Z,69.50
2019-05-22T11:23:21.092Z,69.30
2019-05-22T11:25:49.887Z,67.40
2019-05-22T11:28:18.932Z,69.60
2019-05-22T11:30:48.074Z,65.20
2019-05-22T11:33:16.830Z,61.90
2019-05-22T11:36:05.739Z,68.40
2019-05-22T11:38:34.474Z,66.20
2019-05-22T11:41:03.718Z,63.40
2019-05-22T11:43:32.525Z,62.30
2019-05-22T11:46:01.771Z,64.70
2019-05-22T11:48:30.513Z,68.90
2019-05-22T11:51:01.029Z,68.80
2019-05-22T11:53:30.246Z,66.50
2019-05-22T11:56:00.388Z,63.70
2019-05-22T11:58:29.395Z,59.60
2019-05-22T12:00:58.101Z,59.70
2019-05-22T12:03:27.085Z,59.80
2019-05-22T12:05:55.883Z,64.70
2019-05-22T12:08:25.569Z,68.60
2019-05-22T12:10:54.316Z,65.70
2019-05-22T12:13:23.306Z,65.00
2019-05-22T12:15:53.150Z,65.60
2019-05-22T12:18:21.827Z,70.90
2019-05-22T12:20:50.521Z,66.30
2019-05-22T12:23:19.635Z,62.00
2019-05-22T12:25:48.329Z,63.20
2019-05-22T12:28:17.637Z,67.20
2019-05-22T12:30:47.346Z,63.90
2019-05-22T12:33:16.146Z,65.40
2019-05-22T12:35:44.904Z,61.50
2019-05-22T12:38:13.943Z,58.90
2019-05-22T12:40:43.545Z,59.90
2019-05-22T12:43:12.339Z,65.90
2019-05-22T12:45:41.088Z,64.20
2019-05-22T12:48:10.209Z,60.40
2019-05-22T12:50:39.502Z,64.70
2019-05-22T12:53:09.350Z,59.50
2019-05-22T12:55:38.287Z,57.60
2019-05-22T12:58:07.035Z,58.40
2019-05-22T13:00:36.610Z,56.80
2019-05-22T13:03:07.043Z,59.90
2019-05-22T13:05:39.323Z,58.50
2019-05-22T13:08:09.369Z,55.50
2019-05-22T13:10:38.902Z,59.20
2019-05-22T13:13:07.947Z,56.50
2019-05-22T13:15:39.025Z,55.50
2019-05-22T13:18:10.015Z,55.90
2019-05-22T13:20:43.565Z,58.50
2019-05-22T13:23:13.947Z,64.30
2019-05-22T13:25:43.606Z,57.80
2019-05-22T13:28:16.369Z,60.60
2019-05-22T13:30:48.375Z,62.50
2019-05-22T13:33:22.161Z,62.30
2019-05-22T13:35:52.142Z,61.60
2019-05-22T13:38:21.283Z,59.00
2019-05-22T13:40:50.275Z,64.20
2019-05-22T13:43:19.313Z,60.20
2019-05-22T13:45:48.067Z,58.00
2019-05-22T13:48:16.678Z,57.60
2019-05-22T13:50:47.804Z,54.80
2019-05-22T13:53:18.024Z,57.50
2019-05-22T13:55:47.247Z,55.60
2019-05-22T13:58:18.602Z,58.70
2019-05-22T14:00:48.011Z,61.50
2019-05-22T14:03:17.618Z,65.20
2019-05-22T14:05:46.936Z,66.60
2019-05-22T14:08:16.308Z,67.60
2019-05-22T14:10:45.467Z,71.60
2019-05-22T14:13:15.759Z,71.00
2019-05-22T14:15:52.610Z,72.80
2019-05-22T14:18:15.204Z,74.30
2019-05-22T14:20:44.303Z,72.40
2019-05-22T14:23:14.005Z,71.20
2019-05-22T14:25:43.947Z,69.40
2019-05-22T14:28:14.169Z,66.00
2019-05-22T14:30:43.867Z,63.70
2019-05-22T14:33:12.849Z,60.90
2019-05-22T14:35:48.366Z,60.60
2019-05-22T14:38:13.466Z,61.60
2019-05-22T14:40:42.927Z,59.30
2019-05-22T14:43:11.998Z,64.30
2019-05-22T14:45:42.482Z,64.50
2019-05-22T14:48:11.599Z,61.30
2019-05-22T14:50:40.282Z,65.60
2019-05-22T14:53:10.693Z,71.40
2019-05-22T14:55:40.589Z,73.00
2019-05-22T14:58:10.010Z,72.70
2019-05-22T15:00:39.554Z,66.90
2019-05-22T15:03:09.070Z,58.90
2019-05-22T15:05:37.980Z,55.70
2019-05-22T15:08:07.493Z,55.00
2019-05-22T15:10:39.084Z,61.30
2019-05-22T15:13:08.774Z,65.40
2019-05-22T15:15:40.656Z,64.00
2019-05-22T15:18:08.209Z,68.30
2019-05-22T15:20:42.195Z,70.90
2019-05-22T15:23:11.552Z,72.70
2019-05-22T15:25:40.330Z,71.00
2019-05-22T15:28:09.943Z,64.30
2019-05-22T15:30:39.290Z,59.90
2019-05-22T15:33:09.470Z,59.40
2019-05-22T15:35:38.350Z,59.10
2019-05-22T15:38:10.387Z,60.50
2019-05-22T15:40:39.701Z,64.10
2019-05-22T15:43:10.372Z,60.60
2019-05-22T15:45:40.281Z,61.00
2019-05-22T15:48:12.487Z,60.20
2019-05-22T15:50:43.497Z,69.50
2019-05-22T15:53:15.183Z,72.50
2019-05-22T15:55:45.780Z,71.50
2019-05-22T15:58:17.336Z,72.00
2019-05-22T16:00:48.269Z,73.70
2019-05-22T16:03:25.160Z,72.60
2019-05-22T16:05:54.914Z,72.70
2019-05-22T16:08:24.404Z,65.30
2019-05-22T16:10:58.945Z,61.00
2019-05-22T16:13:26.898Z,64.20
2019-05-22T16:15:57.608Z,66.90
2019-05-22T16:18:31.894Z,68.20
2019-05-22T16:21:04.628Z,71.50
2019-05-22T16:23:37.460Z,74.60
2019-05-22T16:26:10.006Z,74.50
2019-05-22T16:28:41.040Z,75.20
2019-05-22T16:31:10.710Z,75.00
2019-05-22T16:33:43.531Z,76.80
2019-05-22T16:36:13.355Z,76.70
2019-05-22T16:38:44.030Z,76.90
2019-05-22T16:41:13.514Z,78.60
2019-05-22T16:43:49.336Z,76.60
2019-05-22T16:46:16.869Z,74.00
2019-05-22T16:48:48.076Z,74.10
2019-05-22T16:51:18.511Z,75.00
2019-05-22T16:53:57.828Z,75.50
2019-05-22T16:56:27.749Z,76.40
2019-05-22T16:58:56.890Z,77.60
2019-05-22T17:01:26.872Z,78.40
2019-05-22T17:03:58.641Z,76.90
2019-05-22T17:06:27.917Z,76.80
2019-05-22T17:08:58.039Z,77.60
2019-05-22T17:11:27.949Z,78.20
2019-05-22T17:13:59.331Z,77.90
2019-05-22T17:16:29.653Z,78.60
2019-05-22T17:18:58.778Z,80.00
2019-05-22T17:21:28.832Z,80.40
2019-05-22T17:23:59.427Z,80.60
2019-05-22T17:26:30.068Z,81.90
2019-05-22T17:28:59.576Z,82.90
2019-05-22T17:31:29.465Z,83.00
2019-05-22T17:33:59.489Z,82.70
2019-05-22T17:36:30.963Z,82.50
2019-05-22T17:38:59.901Z,82.70
2019-05-22T17:41:30.531Z,82.70
2019-05-22T17:44:00.747Z,82.20
2019-05-22T17:46:31.755Z,82.70
2019-05-22T17:49:01.524Z,83.10
2019-05-22T17:51:31.213Z,83.20
2019-05-22T17:54:00.325Z,83.30
2019-05-22T17:56:29.342Z,83.80
2019-05-22T17:58:58.141Z,85.30
2019-05-22T18:01:28.069Z,83.70
2019-05-22T18:03:56.967Z,75.50
2019-05-22T18:06:26.471Z,68.60
2019-05-22T18:08:58.269Z,68.60
2019-05-22T18:11:27.222Z,67.90
2019-05-22T18:14:00.934Z,67.80
2019-05-22T18:16:31.189Z,65.50
2019-05-22T18:19:00.299Z,64.30
2019-05-22T18:21:28.989Z,65.20
2019-05-22T18:24:09.806Z,62.60
2019-05-22T18:26:38.575Z,59.90
2019-05-22T18:29:07.378Z,57.30
2019-05-22T18:31:36.231Z,56.50
2019-05-22T18:34:05.283Z,55.40
2019-05-22T18:36:34.737Z,54.30
2019-05-22T18:39:03.854Z,53.20
2019-05-22T18:41:32.585Z,53.40
2019-05-22T18:44:01.372Z,50.50
2019-05-22T18:46:33.883Z,50.80
2019-05-22T18:49:02.801Z,50.90
2019-05-22T18:51:32.156Z,53.10
2019-05-22T18:54:01.290Z,51.70
2019-05-22T18:56:30.237Z,52.50
2019-05-22T18:58:58.941Z,50.90
2019-05-22T19:01:27.784Z,50.30
2019-05-22T19:03:56.479Z,53.00
2019-05-22T19:06:30.290Z,52.70
2019-05-22T19:08:56.151Z,52.20
2019-05-22T19:11:24.939Z,50.80
2019-05-22T19:13:53.562Z,52.20
2019-05-22T19:16:23.592Z,54.80
2019-05-22T19:18:52.320Z,55.80
2019-05-22T19:21:21.276Z,53.40
2019-05-22T19:23:50.714Z,53.80
2019-05-22T19:26:19.685Z,55.00
2019-05-22T19:28:48.485Z,57.70
2019-05-22T19:31:17.228Z,55.70
2019-05-22T19:33:46.267Z,56.00
2019-05-22T19:36:14.941Z,56.30
2019-05-22T19:38:43.712Z,57.70
2019-05-22T19:41:12.703Z,60.60
2019-05-22T19:43:41.881Z,60.20
2019-05-22T19:46:11.150Z,61.90
2019-05-22T19:48:39.895Z,64.40
2019-05-22T19:51:08.565Z,64.00
2019-05-22T19:53:37.676Z,64.70
2019-05-22T19:56:06.910Z,63.40
2019-05-22T19:58:35.832Z,64.90
2019-05-22T20:01:05.937Z,65.40
2019-05-22T20:03:35.073Z,67.10
2019-05-22T20:06:03.815Z,67.10
2019-05-22T20:08:36.153Z,68.00
2019-05-22T20:11:04.330Z,69.60
2019-05-22T20:13:33.733Z,69.90
2019-05-22T20:16:02.699Z,70.80
2019-05-22T20:18:31.482Z,72.20
2019-05-22T20:21:00.431Z,72.20
2019-05-22T20:23:35.981Z,71.10
2019-05-22T20:26:01.831Z,71.80
2019-05-22T20:28:31.562Z,72.70
2019-05-22T20:31:00.374Z,74.60
2019-05-22T20:33:29.068Z,75.10
2019-05-22T20:35:57.850Z,77.00
2019-05-22T20:38:27.415Z,75.60
2019-05-22T20:40:56.439Z,76.80
2019-05-22T20:43:25.904Z,77.60
2019-05-22T20:45:55.536Z,77.50
2019-05-22T20:48:27.061Z,78.20
2019-05-22T20:51:08.597Z,76.60
2019-05-22T20:53:54.819Z,78.20
2019-05-22T20:56:25.316Z,76.80
2019-05-22T20:58:54.657Z,77.90
2019-05-22T21:01:23.406Z,79.10
2019-05-22T21:03:52.660Z,79.40
2019-05-22T21:06:23.200Z,80.20
2019-05-22T21:08:52.594Z,80.70
2019-05-22T21:11:25.146Z,80.00
2019-05-22T21:13:54.731Z,81.70
2019-05-22T21:16:23.812Z,82.70
2019-05-22T21:18:54.257Z,82.30
2019-05-22T21:21:25.701Z,83.50
2019-05-22T21:24:09.577Z,84.10
2019-05-22T21:26:26.713Z,83.10
2019-05-22T21:28:55.456Z,84.20
2019-05-22T21:31:24.873Z,82.50
2019-05-22T21:33:54.510Z,83.30
2019-05-22T21:36:24.760Z,83.10
2019-05-22T21:38:53.954Z,84.10
2019-05-22T21:41:23.281Z,85.20
2019-05-22T21:43:53.843Z,84.90
2019-05-22T21:46:23.396Z,86.10
2019-05-22T21:48:53.732Z,86.90
2019-05-22T21:51:23.620Z,86.70
2019-05-22T21:53:53.362Z,87.80
2019-05-22T21:56:22.609Z,88.10
2019-05-22T21:58:52.060Z,89.30
2019-05-22T22:01:22.381Z,89.10
2019-05-22T22:03:53.788Z,88.70
2019-05-22T22:06:23.411Z,89.10
2019-05-22T22:08:52.169Z,88.90
2019-05-22T22:11:23.890Z,90.10
2019-05-22T22:13:53.034Z,89.30
2019-05-22T22:16:23.041Z,89.90
2019-05-22T22:18:51.786Z,89.80
2019-05-22T22:21:21.269Z,88.70
2019-05-22T22:23:50.531Z,88.70
2019-05-22T22:26:25.868Z,88.80
2019-05-22T22:28:51.021Z,89.10
2019-05-22T22:31:21.308Z,90.20
2019-05-22T22:33:53.186Z,89.30
2019-05-22T22:36:22.313Z,90.00
2019-05-22T22:38:51.944Z,90.20
2019-05-22T22:41:21.454Z,90.70
2019-05-22T22:43:52.071Z,90.60
2019-05-22T22:46:41.474Z,90.70
2019-05-22T22:49:13.488Z,90.30
2019-05-22T22:51:42.696Z,90.70
2019-05-22T22:54:14.199Z,91.00
2019-05-22T22:56:43.542Z,91.10
2019-05-22T22:59:12.960Z,91.40
2019-05-22T23:01:46.020Z,91.60
2019-05-22T23:04:15.461Z,91.80
2019-05-22T23:06:45.139Z,92.10
2019-05-22T23:09:15.288Z,92.30
2019-05-22T23:11:45.851Z,92.20
2019-05-22T23:14:15.659Z,92.20
2019-05-22T23:16:45.312Z,92.20
2019-05-22T23:19:18.187Z,92.10
2019-05-22T23:21:48.961Z,92.40
2019-05-22T23:24:19.911Z,92.50
2019-05-22T23:26:49.329Z,92.50
2019-05-22T23:29:19.738Z,92.50
2019-05-22T23:31:49.734Z,92.50
2019-05-22T23:34:18.665Z,92.60
2019-05-22T23:36:47.617Z,92.60
2019-05-22T23:39:18.459Z,92.70
2019-05-22T23:41:48.665Z,92.70
2019-05-22T23:44:20.192Z,92.60
2019-05-22T23:46:49.886Z,92.60
2019-05-22T23:49:19.323Z,93.40
2019-05-22T23:51:48.537Z,93.10
2019-05-22T23:54:17.310Z,92.90
2019-05-22T23:56:46.641Z,92.70
2019-05-22T23:59:16.860Z,92.90
